Waterbury, VT (05676)

1:52 AM EDT on April 28, 2017 (GMT -0400)
Bolton Valley | | Change Station

Elev 2100 ft 44.42 °N, 72.85 °W | Updated 2 seconds ago

Overcast
Overcast
58.6 °F
Feels Like 58.6 °F
N
0.0
Wind Variable Wind from NW
Gusts 8.0 mph

Today
High -- | Low -- °F
--% Chance of Precip.
Yesterday
High -- | Low -- °F
Precip. -- in
Pressure 29.88 in
Visibility 10.0 miles
Clouds Mostly Cloudy 2000 ft
Overcast 2800 ft
Dew Point 54 °F
Humidity 85%
Rainfall 0.00 in
Snow Depth Not available.
5:45 AM 7:51 PM
Waxing Crescent, 5% visible
METAR KMPV 280451Z AUTO 17009KT 10SM BKN020 OVC028 16/13 A2988 RMK AO2 SLP118 T01560133 402060117
Pressure 29.88 in
Visibility 10.0 miles
Clouds Mostly Cloudy 2000 ft
Overcast 2800 ft
Dew Point 54 °F
Humidity 85%
Rainfall 0.00 in
Snow Depth Not available.
5:45 AM 7:51 PM
Waxing Crescent, 5% visible
METAR KMPV 280451Z AUTO 17009KT 10SM BKN020 OVC028 16/13 A2988 RMK AO2 SLP118 T01560133 402060117

Get Severe Weather Alerts

Thanks for signing up!

Be on the lookout for a verification email in your inbox.

You'll start receiving the daily forecast at 8 AM.

×

10-Day Weather Forecast

Almanac

Astronomy

Apr. 28, 2017 Rise Set
Actual Time
Civil Twilight
Nautical Twilight
Astronomical Twilight
Moon
Length of Visible Light
Length of Day
Tomorrow will be .
, % of the Moon is Illuminated

Today's Extremes

State Highs State Lows

Community

WunderPhotos

WunderBlog® & News

Nearby

Air Quality

  Air Quality AQ Index Pollutant
Not available.

Snow Depth

Station Depth Elevation

Earthquake Activity

City Distance Mag. Time & Date
Minimum magnitude displayed is 2.5.

Coastal Water Temperatures

Place Temperature

Stations

Nearby Weather Stations

Station Location Temp. Windchill Dew Point Humidity Wind Precip. Elev Updated Type
                   

Watches & Warnings

There are currently no watches in effect.